sensor_id;sensor_type;location;lat;lon;timestamp;pressure;altitude;pressure_sealevel;temperature
64790;BMP280;51223;51.816;5.862;2022-12-29T00:02:15;98366.63;;;11.87
64790;BMP280;51223;51.816;5.862;2022-12-29T00:04:41;98364.56;;;11.82
64790;BMP280;51223;51.816;5.862;2022-12-29T00:07:07;98348.22;;;11.86
64790;BMP280;51223;51.816;5.862;2022-12-29T00:09:34;98362.28;;;11.86
64790;BMP280;51223;51.816;5.862;2022-12-29T00:12:01;98365.81;;;11.81
64790;BMP280;51223;51.816;5.862;2022-12-29T00:14:27;98354.13;;;11.88
64790;BMP280;51223;51.816;5.862;2022-12-29T00:17:11;98357.94;;;11.91
64790;BMP280;51223;51.816;5.862;2022-12-29T00:19:37;98337.03;;;11.92
64790;BMP280;51223;51.816;5.862;2022-12-29T00:22:21;98338.31;;;11.91
64790;BMP280;51223;51.816;5.862;2022-12-29T00:25:08;98320.66;;;11.85
64790;BMP280;51223;51.816;5.862;2022-12-29T00:27:53;98302.53;;;11.86
64790;BMP280;51223;51.816;5.862;2022-12-29T00:30:37;98267.59;;;11.87
64790;BMP280;51223;51.816;5.862;2022-12-29T00:33:26;98245.13;;;11.87
64790;BMP280;51223;51.816;5.862;2022-12-29T00:38:46;98210.91;;;11.83
64790;BMP280;51223;51.816;5.862;2022-12-29T00:41:31;98217.31;;;11.83
64790;BMP280;51223;51.816;5.862;2022-12-29T00:44:15;98220.59;;;11.82
64790;BMP280;51223;51.816;5.862;2022-12-29T00:46:42;98214.72;;;11.80
64790;BMP280;51223;51.816;5.862;2022-12-29T00:49:11;98239.22;;;11.79
64790;BMP280;51223;51.816;5.862;2022-12-29T00:54:23;98255.28;;;11.79
64790;BMP280;51223;51.816;5.862;2022-12-29T00:56:50;98267.53;;;11.76
64790;BMP280;51223;51.816;5.862;2022-12-29T00:59:17;98286.66;;;11.77
64790;BMP280;51223;51.816;5.862;2022-12-29T01:01:44;98272.38;;;11.75
64790;BMP280;51223;51.816;5.862;2022-12-29T01:04:10;98244.25;;;11.70
64790;BMP280;51223;51.816;5.862;2022-12-29T01:06:38;98222.53;;;11.64
64790;BMP280;51223;51.816;5.862;2022-12-29T01:09:05;98197.00;;;11.62
64790;BMP280;51223;51.816;5.862;2022-12-29T01:11:49;98167.63;;;11.58
64790;BMP280;51223;51.816;5.862;2022-12-29T01:14:16;98154.84;;;11.57
64790;BMP280;51223;51.816;5.862;2022-12-29T01:16:42;98147.22;;;11.57
64790;BMP280;51223;51.816;5.862;2022-12-29T01:19:09;98136.00;;;11.57
64790;BMP280;51223;51.816;5.862;2022-12-29T01:21:35;98134.94;;;11.49
64790;BMP280;51223;51.816;5.862;2022-12-29T01:24:01;98110.22;;;11.53
64790;BMP280;51223;51.816;5.862;2022-12-29T01:26:27;98096.91;;;11.48
64790;BMP280;51223;51.816;5.862;2022-12-29T01:28:53;98079.84;;;11.46
64790;BMP280;51223;51.816;5.862;2022-12-29T01:31:19;98043.88;;;11.50
64790;BMP280;51223;51.816;5.862;2022-12-29T01:33:44;98039.25;;;11.47
64790;BMP280;51223;51.816;5.862;2022-12-29T01:36:13;98015.06;;;11.50
64790;BMP280;51223;51.816;5.862;2022-12-29T01:38:40;98013.78;;;11.45
64790;BMP280;51223;51.816;5.862;2022-12-29T01:41:08;97983.69;;;11.51
64790;BMP280;51223;51.816;5.862;2022-12-29T01:43:56;97968.13;;;11.56
64790;BMP280;51223;51.816;5.862;2022-12-29T01:46:28;97947.25;;;11.62
64790;BMP280;51223;51.816;5.862;2022-12-29T01:49:00;97943.72;;;11.68
64790;BMP280;51223;51.816;5.862;2022-12-29T01:51:31;97950.88;;;11.74
64790;BMP280;51223;51.816;5.862;2022-12-29T01:54:02;97959.53;;;11.71
64790;BMP280;51223;51.816;5.862;2022-12-29T01:56:30;97970.00;;;11.76
64790;BMP280;51223;51.816;5.862;2022-12-29T01:59:03;97976.13;;;11.80
64790;BMP280;51223;51.816;5.862;2022-12-29T02:01:30;97993.22;;;11.82
64790;BMP280;51223;51.816;5.862;2022-12-29T02:03:56;98018.22;;;11.85
64790;BMP280;51223;51.816;5.862;2022-12-29T02:06:28;98020.81;;;11.83
64790;BMP280;51223;51.816;5.862;2022-12-29T02:08:56;98042.22;;;11.81
64790;BMP280;51223;51.816;5.862;2022-12-29T02:11:25;98060.88;;;11.89
64790;BMP280;51223;51.816;5.862;2022-12-29T02:13:52;98089.97;;;11.92
64790;BMP280;51223;51.816;5.862;2022-12-29T02:16:31;98093.03;;;11.94
64790;BMP280;51223;51.816;5.862;2022-12-29T02:19:25;98129.84;;;12.01
64790;BMP280;51223;51.816;5.862;2022-12-29T02:27:40;98232.97;;;12.01
64790;BMP280;51223;51.816;5.862;2022-12-29T02:30:15;98253.91;;;12.00
64790;BMP280;51223;51.816;5.862;2022-12-29T02:35:31;98313.44;;;12.10
64790;BMP280;51223;51.816;5.862;2022-12-29T02:40:40;98350.00;;;12.15
64790;BMP280;51223;51.816;5.862;2022-12-29T02:43:26;98360.44;;;12.15
64790;BMP280;51223;51.816;5.862;2022-12-29T02:48:46;98378.34;;;12.17
64790;BMP280;51223;51.816;5.862;2022-12-29T02:51:21;98411.31;;;12.22
64790;BMP280;51223;51.816;5.862;2022-12-29T02:53:50;98420.78;;;12.19
64790;BMP280;51223;51.816;5.862;2022-12-29T02:56:34;98445.56;;;12.26
64790;BMP280;51223;51.816;5.862;2022-12-29T02:59:00;98459.13;;;12.28
64790;BMP280;51223;51.816;5.862;2022-12-29T03:01:39;98517.66;;;12.35
64790;BMP280;51223;51.816;5.862;2022-12-29T03:04:40;98511.03;;;12.32
64790;BMP280;51223;51.816;5.862;2022-12-29T03:10:13;98512.28;;;12.31
64790;BMP280;51223;51.816;5.862;2022-12-29T03:15:45;98545.28;;;12.36
64790;BMP280;51223;51.816;5.862;2022-12-29T03:18:47;98548.06;;;12.36
64790;BMP280;51223;51.816;5.862;2022-12-29T03:21:37;98568.31;;;12.40
64790;BMP280;51223;51.816;5.862;2022-12-29T03:24:26;98543.22;;;12.37
64790;BMP280;51223;51.816;5.862;2022-12-29T03:26:54;98531.22;;;12.36
64790;BMP280;51223;51.816;5.862;2022-12-29T03:29:22;98533.75;;;12.34
64790;BMP280;51223;51.816;5.862;2022-12-29T03:31:49;98522.47;;;12.29
64790;BMP280;51223;51.816;5.862;2022-12-29T03:34:17;98506.38;;;12.29
64790;BMP280;51223;51.816;5.862;2022-12-29T03:36:53;98502.81;;;12.29
64790;BMP280;51223;51.816;5.862;2022-12-29T03:39:22;98518.41;;;12.30
64790;BMP280;51223;51.816;5.862;2022-12-29T03:41:51;98515.09;;;12.31
64790;BMP280;51223;51.816;5.862;2022-12-29T03:44:19;98516.63;;;12.32
64790;BMP280;51223;51.816;5.862;2022-12-29T03:46:45;98520.47;;;12.35
64790;BMP280;51223;51.816;5.862;2022-12-29T03:49:10;98522.75;;;12.31
64790;BMP280;51223;51.816;5.862;2022-12-29T03:51:36;98511.22;;;12.29
64790;BMP280;51223;51.816;5.862;2022-12-29T03:54:02;98504.31;;;12.24
64790;BMP280;51223;51.816;5.862;2022-12-29T03:56:28;98493.84;;;12.25
64790;BMP280;51223;51.816;5.862;2022-12-29T03:58:54;98510.19;;;12.26
64790;BMP280;51223;51.816;5.862;2022-12-29T04:01:20;98511.19;;;12.23
64790;BMP280;51223;51.816;5.862;2022-12-29T04:03:45;98516.31;;;12.25
64790;BMP280;51223;51.816;5.862;2022-12-29T04:06:11;98520.38;;;12.24
64790;BMP280;51223;51.816;5.862;2022-12-29T04:08:37;98498.69;;;12.24
64790;BMP280;51223;51.816;5.862;2022-12-29T04:11:03;98510.13;;;12.21
64790;BMP280;51223;51.816;5.862;2022-12-29T04:13:30;98516.31;;;12.25
64790;BMP280;51223;51.816;5.862;2022-12-29T04:15:55;98518.56;;;12.21
64790;BMP280;51223;51.816;5.862;2022-12-29T04:18:21;98518.34;;;12.24
64790;BMP280;51223;51.816;5.862;2022-12-29T04:20:47;98524.97;;;12.21
64790;BMP280;51223;51.816;5.862;2022-12-29T04:23:25;98508.59;;;12.20
64790;BMP280;51223;51.816;5.862;2022-12-29T04:25:51;98506.31;;;12.18
64790;BMP280;51223;51.816;5.862;2022-12-29T04:28:17;98506.50;;;12.15
64790;BMP280;51223;51.816;5.862;2022-12-29T04:30:44;98504.75;;;12.17
64790;BMP280;51223;51.816;5.862;2022-12-29T04:33:09;98506.78;;;12.17
64790;BMP280;51223;51.816;5.862;2022-12-29T04:35:35;98503.22;;;12.16
64790;BMP280;51223;51.816;5.862;2022-12-29T04:38:01;98432.19;;;12.10
64790;BMP280;51223;51.816;5.862;2022-12-29T04:40:27;98374.94;;;12.02
64790;BMP280;51223;51.816;5.862;2022-12-29T04:42:53;98294.38;;;11.82
64790;BMP280;51223;51.816;5.862;2022-12-29T04:45:19;98249.66;;;11.79
64790;BMP280;51223;51.816;5.862;2022-12-29T04:47:45;98221.84;;;11.75
64790;BMP280;51223;51.816;5.862;2022-12-29T04:50:11;98204.25;;;11.75
64790;BMP280;51223;51.816;5.862;2022-12-29T04:52:37;98202.69;;;11.74
64790;BMP280;51223;51.816;5.862;2022-12-29T04:55:04;98220.06;;;11.78
64790;BMP280;51223;51.816;5.862;2022-12-29T04:57:30;98220.00;;;11.66
64790;BMP280;51223;51.816;5.862;2022-12-29T04:59:56;98244.00;;;11.68
64790;BMP280;51223;51.816;5.862;2022-12-29T05:02:22;98256.00;;;11.68
64790;BMP280;51223;51.816;5.862;2022-12-29T05:04:48;98267.47;;;11.70
64790;BMP280;51223;51.816;5.862;2022-12-29T05:07:14;98274.81;;;11.62
64790;BMP280;51223;51.816;5.862;2022-12-29T05:09:40;98291.94;;;11.64
64790;BMP280;51223;51.816;5.862;2022-12-29T05:12:05;98308.16;;;11.54
64790;BMP280;51223;51.816;5.862;2022-12-29T05:14:32;98318.44;;;11.63
64790;BMP280;51223;51.816;5.862;2022-12-29T05:16:58;98348.47;;;11.57
64790;BMP280;51223;51.816;5.862;2022-12-29T05:19:23;98376.38;;;11.60
64790;BMP280;51223;51.816;5.862;2022-12-29T05:21:49;98394.16;;;11.57
64790;BMP280;51223;51.816;5.862;2022-12-29T05:24:15;98439.53;;;11.56
64790;BMP280;51223;51.816;5.862;2022-12-29T05:26:41;98485.88;;;11.46
64790;BMP280;51223;51.816;5.862;2022-12-29T05:29:07;98504.56;;;11.54
64790;BMP280;51223;51.816;5.862;2022-12-29T05:31:33;98555.22;;;11.60
64790;BMP280;51223;51.816;5.862;2022-12-29T05:34:01;98593.81;;;11.50
64790;BMP280;51223;51.816;5.862;2022-12-29T05:36:27;98606.59;;;11.51
64790;BMP280;51223;51.816;5.862;2022-12-29T05:38:53;98595.94;;;11.55
64790;BMP280;51223;51.816;5.862;2022-12-29T05:41:18;98613.00;;;11.52
64790;BMP280;51223;51.816;5.862;2022-12-29T05:43:44;98627.50;;;11.50
64790;BMP280;51223;51.816;5.862;2022-12-29T05:46:10;98643.91;;;11.37
64790;BMP280;51223;51.816;5.862;2022-12-29T05:48:36;98654.72;;;11.44
64790;BMP280;51223;51.816;5.862;2022-12-29T05:51:02;98646.84;;;11.48
64790;BMP280;51223;51.816;5.862;2022-12-29T05:53:28;98666.63;;;11.39
64790;BMP280;51223;51.816;5.862;2022-12-29T05:55:53;98697.22;;;11.37
64790;BMP280;51223;51.816;5.862;2022-12-29T05:58:19;98694.28;;;11.46
64790;BMP280;51223;51.816;5.862;2022-12-29T06:00:45;98700.06;;;11.57
64790;BMP280;51223;51.816;5.862;2022-12-29T06:03:11;98742.75;;;11.61
64790;BMP280;51223;51.816;5.862;2022-12-29T06:05:37;98785.44;;;11.65
64790;BMP280;51223;51.816;5.862;2022-12-29T06:08:03;98818.50;;;11.76
64790;BMP280;51223;51.816;5.862;2022-12-29T06:10:28;98853.56;;;11.81
64790;BMP280;51223;51.816;5.862;2022-12-29T06:12:54;98849.50;;;11.82
64790;BMP280;51223;51.816;5.862;2022-12-29T06:15:20;98867.50;;;11.90
64790;BMP280;51223;51.816;5.862;2022-12-29T06:17:46;98893.03;;;11.92
64790;BMP280;51223;51.816;5.862;2022-12-29T06:20:12;98913.75;;;11.94
64790;BMP280;51223;51.816;5.862;2022-12-29T06:22:37;98905.75;;;12.02
64790;BMP280;51223;51.816;5.862;2022-12-29T06:25:04;98920.44;;;11.97
64790;BMP280;51223;51.816;5.862;2022-12-29T06:27:31;98923.38;;;11.73
64790;BMP280;51223;51.816;5.862;2022-12-29T06:29:57;98920.84;;;11.60
64790;BMP280;51223;51.816;5.862;2022-12-29T06:32:22;98925.19;;;11.61
64790;BMP280;51223;51.816;5.862;2022-12-29T06:34:48;98936.59;;;11.58
64790;BMP280;51223;51.816;5.862;2022-12-29T06:37:14;98921.28;;;11.44
64790;BMP280;51223;51.816;5.862;2022-12-29T06:39:40;98936.19;;;11.50
64790;BMP280;51223;51.816;5.862;2022-12-29T06:42:06;98907.00;;;11.72
64790;BMP280;51223;51.816;5.862;2022-12-29T06:44:32;98928.88;;;11.82
64790;BMP280;51223;51.816;5.862;2022-12-29T06:46:58;98947.94;;;11.78
64790;BMP280;51223;51.816;5.862;2022-12-29T06:49:23;98946.69;;;11.94
64790;BMP280;51223;51.816;5.862;2022-12-29T06:51:49;98987.97;;;12.02
64790;BMP280;51223;51.816;5.862;2022-12-29T06:54:15;99011.69;;;12.01
64790;BMP280;51223;51.816;5.862;2022-12-29T06:56:41;99018.00;;;12.11
64790;BMP280;51223;51.816;5.862;2022-12-29T06:59:07;99051.91;;;12.22
64790;BMP280;51223;51.816;5.862;2022-12-29T07:01:32;99058.84;;;12.12
64790;BMP280;51223;51.816;5.862;2022-12-29T07:03:58;99084.84;;;12.22
64790;BMP280;51223;51.816;5.862;2022-12-29T07:06:24;99092.31;;;12.25
64790;BMP280;51223;51.816;5.862;2022-12-29T07:08:50;99074.75;;;12.30
64790;BMP280;51223;51.816;5.862;2022-12-29T07:11:16;99092.81;;;12.53
64790;BMP280;51223;51.816;5.862;2022-12-29T07:13:41;99106.75;;;12.62
64790;BMP280;51223;51.816;5.862;2022-12-29T07:16:08;99124.84;;;12.17
64790;BMP280;51223;51.816;5.862;2022-12-29T07:18:35;99080.38;;;12.30
64790;BMP280;51223;51.816;5.862;2022-12-29T07:21:01;99098.78;;;12.16
64790;BMP280;51223;51.816;5.862;2022-12-29T07:23:27;99107.69;;;12.00
64790;BMP280;51223;51.816;5.862;2022-12-29T07:26:03;99078.00;;;11.99
64790;BMP280;51223;51.816;5.862;2022-12-29T07:28:30;99098.53;;;11.90
64790;BMP280;51223;51.816;5.862;2022-12-29T07:30:56;99069.28;;;11.82
64790;BMP280;51223;51.816;5.862;2022-12-29T07:33:22;99074.53;;;11.89
64790;BMP280;51223;51.816;5.862;2022-12-29T07:35:48;99084.69;;;11.87
64790;BMP280;51223;51.816;5.862;2022-12-29T07:38:14;99089.41;;;11.81
64790;BMP280;51223;51.816;5.862;2022-12-29T07:40:40;99085.94;;;11.86
64790;BMP280;51223;51.816;5.862;2022-12-29T07:43:06;99098.16;;;11.83
64790;BMP280;51223;51.816;5.862;2022-12-29T07:45:32;99110.31;;;11.80
64790;BMP280;51223;51.816;5.862;2022-12-29T07:47:58;99131.53;;;11.81
64790;BMP280;51223;51.816;5.862;2022-12-29T07:50:23;99108.47;;;11.77
64790;BMP280;51223;51.816;5.862;2022-12-29T07:52:49;99122.13;;;11.84
64790;BMP280;51223;51.816;5.862;2022-12-29T07:55:16;99137.94;;;11.81
64790;BMP280;51223;51.816;5.862;2022-12-29T07:57:42;99157.75;;;11.78
64790;BMP280;51223;51.816;5.862;2022-12-29T08:00:08;99183.22;;;11.74
64790;BMP280;51223;51.816;5.862;2022-12-29T08:02:35;99184.00;;;11.75
64790;BMP280;51223;51.816;5.862;2022-12-29T08:05:02;99199.66;;;11.57
64790;BMP280;51223;51.816;5.862;2022-12-29T08:07:28;99180.69;;;11.52
64790;BMP280;51223;51.816;5.862;2022-12-29T08:09:53;99230.78;;;11.45
64790;BMP280;51223;51.816;5.862;2022-12-29T08:12:19;99224.06;;;11.42
64790;BMP280;51223;51.816;5.862;2022-12-29T08:14:45;99233.63;;;11.36
64790;BMP280;51223;51.816;5.862;2022-12-29T08:17:11;99229.44;;;11.31
64790;BMP280;51223;51.816;5.862;2022-12-29T08:19:37;99239.38;;;11.32
64790;BMP280;51223;51.816;5.862;2022-12-29T08:22:03;99220.41;;;11.27
64790;BMP280;51223;51.816;5.862;2022-12-29T08:24:29;99221.53;;;11.53
64790;BMP280;51223;51.816;5.862;2022-12-29T08:26:55;99208.25;;;11.54
64790;BMP280;51223;51.816;5.862;2022-12-29T08:29:21;99239.25;;;11.69
64790;BMP280;51223;51.816;5.862;2022-12-29T08:31:47;99231.47;;;11.63
64790;BMP280;51223;51.816;5.862;2022-12-29T08:34:13;99196.34;;;11.92
64790;BMP280;51223;51.816;5.862;2022-12-29T08:36:39;99223.31;;;11.75
64790;BMP280;51223;51.816;5.862;2022-12-29T08:39:05;99217.66;;;11.98
64790;BMP280;51223;51.816;5.862;2022-12-29T08:41:31;99245.69;;;11.84
64790;BMP280;51223;51.816;5.862;2022-12-29T08:43:56;99235.47;;;11.72
64790;BMP280;51223;51.816;5.862;2022-12-29T08:46:22;99185.31;;;11.88
64790;BMP280;51223;51.816;5.862;2022-12-29T08:48:48;99213.34;;;11.74
64790;BMP280;51223;51.816;5.862;2022-12-29T08:51:14;99190.41;;;11.75
64790;BMP280;51223;51.816;5.862;2022-12-29T08:53:40;99191.19;;;11.76
64790;BMP280;51223;51.816;5.862;2022-12-29T08:56:08;99172.03;;;11.89
64790;BMP280;51223;51.816;5.862;2022-12-29T08:58:34;99208.59;;;11.80
64790;BMP280;51223;51.816;5.862;2022-12-29T09:01:01;99243.69;;;12.32
64790;BMP280;51223;51.816;5.862;2022-12-29T09:03:27;99303.31;;;12.74
64790;BMP280;51223;51.816;5.862;2022-12-29T09:05:54;99318.69;;;13.17
64790;BMP280;51223;51.816;5.862;2022-12-29T09:08:20;99351.41;;;13.44
64790;BMP280;51223;51.816;5.862;2022-12-29T09:10:46;99431.63;;;13.10
64790;BMP280;51223;51.816;5.862;2022-12-29T09:13:13;99443.06;;;13.31
64790;BMP280;51223;51.816;5.862;2022-12-29T09:15:39;99401.69;;;13.95
64790;BMP280;51223;51.816;5.862;2022-12-29T09:18:06;99471.75;;;13.88
64790;BMP280;51223;51.816;5.862;2022-12-29T09:20:33;99472.81;;;13.76
64790;BMP280;51223;51.816;5.862;2022-12-29T09:23:00;99436.84;;;13.56
64790;BMP280;51223;51.816;5.862;2022-12-29T09:25:26;99473.00;;;12.80
64790;BMP280;51223;51.816;5.862;2022-12-29T09:27:52;99400.53;;;13.29
64790;BMP280;51223;51.816;5.862;2022-12-29T09:30:20;99426.97;;;13.46
64790;BMP280;51223;51.816;5.862;2022-12-29T09:32:46;99422.25;;;13.13
64790;BMP280;51223;51.816;5.862;2022-12-29T09:35:14;99407.97;;;12.78
64790;BMP280;51223;51.816;5.862;2022-12-29T09:37:40;99385.13;;;12.86
64790;BMP280;51223;51.816;5.862;2022-12-29T09:40:07;99365.44;;;12.86
64790;BMP280;51223;51.816;5.862;2022-12-29T09:43:23;99316.06;;;12.85
64790;BMP280;51223;51.816;5.862;2022-12-29T09:51:37;99267.75;;;13.30
64790;BMP280;51223;51.816;5.862;2022-12-29T09:57:19;99232.78;;;12.49
64790;BMP280;51223;51.816;5.862;2022-12-29T09:59:48;99282.94;;;12.65
64790;BMP280;51223;51.816;5.862;2022-12-29T10:04:41;99264.84;;;12.80
64790;BMP280;51223;51.816;5.862;2022-12-29T10:07:18;99235.69;;;12.54
64790;BMP280;51223;51.816;5.862;2022-12-29T10:09:56;99218.44;;;12.47
64790;BMP280;51223;51.816;5.862;2022-12-29T10:15:36;99204.00;;;12.39
64790;BMP280;51223;51.816;5.862;2022-12-29T10:23:44;99131.91;;;12.27
64790;BMP280;51223;51.816;5.862;2022-12-29T10:26:16;99075.94;;;12.23
64790;BMP280;51223;51.816;5.862;2022-12-29T10:29:03;99034.31;;;11.98
64790;BMP280;51223;51.816;5.862;2022-12-29T10:31:36;99100.44;;;12.37
64790;BMP280;51223;51.816;5.862;2022-12-29T10:34:12;99076.16;;;11.81
64790;BMP280;51223;51.816;5.862;2022-12-29T10:36:40;99070.63;;;11.87
64790;BMP280;51223;51.816;5.862;2022-12-29T10:39:14;99058.13;;;11.49
64790;BMP280;51223;51.816;5.862;2022-12-29T10:41:53;99002.66;;;12.41
64790;BMP280;51223;51.816;5.862;2022-12-29T10:44:20;99072.28;;;11.93
64790;BMP280;51223;51.816;5.862;2022-12-29T10:46:57;99089.28;;;11.60
64790;BMP280;51223;51.816;5.862;2022-12-29T10:49:26;99016.16;;;12.23
64790;BMP280;51223;51.816;5.862;2022-12-29T10:51:57;98994.81;;;11.87
64790;BMP280;51223;51.816;5.862;2022-12-29T10:57:01;98993.66;;;11.79
64790;BMP280;51223;51.816;5.862;2022-12-29T10:59:31;99053.41;;;11.32
64790;BMP280;51223;51.816;5.862;2022-12-29T11:07:16;99083.34;;;11.97
64790;BMP280;51223;51.816;5.862;2022-12-29T11:09:44;99076.69;;;12.38
64790;BMP280;51223;51.816;5.862;2022-12-29T11:12:25;99120.59;;;12.21
64790;BMP280;51223;51.816;5.862;2022-12-29T11:17:46;99140.88;;;12.55
64790;BMP280;51223;51.816;5.862;2022-12-29T11:22:54;99076.06;;;11.76
64790;BMP280;51223;51.816;5.862;2022-12-29T11:25:20;99089.91;;;11.94
64790;BMP280;51223;51.816;5.862;2022-12-29T11:27:59;99117.78;;;12.21
64790;BMP280;51223;51.816;5.862;2022-12-29T11:30:31;99140.75;;;12.34
64790;BMP280;51223;51.816;5.862;2022-12-29T11:32:58;99140.56;;;12.23
64790;BMP280;51223;51.816;5.862;2022-12-29T11:35:39;99164.72;;;12.45
64790;BMP280;51223;51.816;5.862;2022-12-29T11:38:18;99214.97;;;12.66
64790;BMP280;51223;51.816;5.862;2022-12-29T11:40:45;99212.53;;;12.59
64790;BMP280;51223;51.816;5.862;2022-12-29T11:43:23;99259.75;;;12.70
64790;BMP280;51223;51.816;5.862;2022-12-29T11:45:51;99284.63;;;12.86
64790;BMP280;51223;51.816;5.862;2022-12-29T11:48:20;99299.19;;;12.85
64790;BMP280;51223;51.816;5.862;2022-12-29T11:50:53;99310.25;;;13.03
64790;BMP280;51223;51.816;5.862;2022-12-29T11:53:22;99298.41;;;12.46
64790;BMP280;51223;51.816;5.862;2022-12-29T11:56:05;99281.84;;;11.91
64790;BMP280;51223;51.816;5.862;2022-12-29T11:58:33;99278.34;;;12.53
64790;BMP280;51223;51.816;5.862;2022-12-29T12:01:23;99298.06;;;13.21
64790;BMP280;51223;51.816;5.862;2022-12-29T12:04:13;99346.03;;;12.64
64790;BMP280;51223;51.816;5.862;2022-12-29T12:06:45;99328.72;;;12.41
64790;BMP280;51223;51.816;5.862;2022-12-29T12:09:31;99354.41;;;12.73
64790;BMP280;51223;51.816;5.862;2022-12-29T12:11:59;99370.56;;;13.26
64790;BMP280;51223;51.816;5.862;2022-12-29T12:14:34;99418.53;;;13.07
64790;BMP280;51223;51.816;5.862;2022-12-29T12:17:05;99424.06;;;13.16
64790;BMP280;51223;51.816;5.862;2022-12-29T12:22:40;99398.81;;;12.69
64790;BMP280;51223;51.816;5.862;2022-12-29T12:25:25;99364.78;;;12.67
64790;BMP280;51223;51.816;5.862;2022-12-29T12:27:58;99393.72;;;12.82
64790;BMP280;51223;51.816;5.862;2022-12-29T12:30:30;99401.44;;;12.49
64790;BMP280;51223;51.816;5.862;2022-12-29T12:33:05;99430.69;;;12.09
64790;BMP280;51223;51.816;5.862;2022-12-29T12:38:59;99380.00;;;12.03
64790;BMP280;51223;51.816;5.862;2022-12-29T12:41:51;99361.94;;;12.52
64790;BMP280;51223;51.816;5.862;2022-12-29T12:44:29;99338.16;;;12.29
64790;BMP280;51223;51.816;5.862;2022-12-29T12:58:53;99394.31;;;12.62
64790;BMP280;51223;51.816;5.862;2022-12-29T13:01:37;99418.78;;;12.71
64790;BMP280;51223;51.816;5.862;2022-12-29T13:04:30;99437.63;;;13.27
64790;BMP280;51223;51.816;5.862;2022-12-29T13:07:12;99472.38;;;13.39
64790;BMP280;51223;51.816;5.862;2022-12-29T13:15:21;99470.13;;;12.57
64790;BMP280;51223;51.816;5.862;2022-12-29T13:17:55;99430.44;;;12.31
64790;BMP280;51223;51.816;5.862;2022-12-29T13:20:44;99478.16;;;12.73
64790;BMP280;51223;51.816;5.862;2022-12-29T13:25:55;99481.00;;;12.97
64790;BMP280;51223;51.816;5.862;2022-12-29T13:28:42;99497.69;;;12.34
64790;BMP280;51223;51.816;5.862;2022-12-29T13:31:34;99489.69;;;12.84
64790;BMP280;51223;51.816;5.862;2022-12-29T13:36:49;99548.03;;;12.98
64790;BMP280;51223;51.816;5.862;2022-12-29T13:39:22;99477.91;;;12.62
64790;BMP280;51223;51.816;5.862;2022-12-29T13:41:51;99517.50;;;13.06
64790;BMP280;51223;51.816;5.862;2022-12-29T13:44:27;99513.28;;;12.87
64790;BMP280;51223;51.816;5.862;2022-12-29T13:46:54;99521.91;;;12.74
64790;BMP280;51223;51.816;5.862;2022-12-29T13:49:22;99531.72;;;12.78
64790;BMP280;51223;51.816;5.862;2022-12-29T13:51:55;99539.53;;;12.84
64790;BMP280;51223;51.816;5.862;2022-12-29T13:54:55;99490.19;;;12.40
64790;BMP280;51223;51.816;5.862;2022-12-29T13:57:40;99434.50;;;12.87
64790;BMP280;51223;51.816;5.862;2022-12-29T14:00:15;99435.03;;;12.19
64790;BMP280;51223;51.816;5.862;2022-12-29T14:07:45;99395.16;;;11.88
64790;BMP280;51223;51.816;5.862;2022-12-29T14:10:34;99403.28;;;11.86
64790;BMP280;51223;51.816;5.862;2022-12-29T14:13:18;99390.09;;;12.67
64790;BMP280;51223;51.816;5.862;2022-12-29T14:15:50;99462.47;;;11.27
64790;BMP280;51223;51.816;5.862;2022-12-29T14:18:19;99368.75;;;12.03
64790;BMP280;51223;51.816;5.862;2022-12-29T14:20:58;99387.44;;;12.07
64790;BMP280;51223;51.816;5.862;2022-12-29T14:23:28;99416.50;;;12.36
64790;BMP280;51223;51.816;5.862;2022-12-29T14:25:58;99407.00;;;12.81
64790;BMP280;51223;51.816;5.862;2022-12-29T14:31:03;99306.72;;;12.16
64790;BMP280;51223;51.816;5.862;2022-12-29T14:33:31;99363.91;;;12.61
64790;BMP280;51223;51.816;5.862;2022-12-29T14:36:21;99412.09;;;12.92
64790;BMP280;51223;51.816;5.862;2022-12-29T14:38:50;99410.84;;;12.93
64790;BMP280;51223;51.816;5.862;2022-12-29T14:41:23;99414.41;;;12.79
64790;BMP280;51223;51.816;5.862;2022-12-29T14:43:56;99392.81;;;12.76
64790;BMP280;51223;51.816;5.862;2022-12-29T14:46:22;99391.56;;;13.01
64790;BMP280;51223;51.816;5.862;2022-12-29T14:48:55;99408.63;;;12.97
64790;BMP280;51223;51.816;5.862;2022-12-29T14:51:35;99392.13;;;12.10
64790;BMP280;51223;51.816;5.862;2022-12-29T14:54:40;99377.63;;;12.82
64790;BMP280;51223;51.816;5.862;2022-12-29T14:57:13;99398.00;;;12.54
64790;BMP280;51223;51.816;5.862;2022-12-29T14:59:39;99434.34;;;12.57
64790;BMP280;51223;51.816;5.862;2022-12-29T15:02:15;99374.91;;;12.50
64790;BMP280;51223;51.816;5.862;2022-12-29T15:04:42;99410.19;;;12.98
64790;BMP280;51223;51.816;5.862;2022-12-29T15:07:10;99425.88;;;12.90
64790;BMP280;51223;51.816;5.862;2022-12-29T15:09:40;99443.59;;;12.81
64790;BMP280;51223;51.816;5.862;2022-12-29T15:12:40;99448.72;;;12.83
64790;BMP280;51223;51.816;5.862;2022-12-29T15:15:22;99433.53;;;12.66
64790;BMP280;51223;51.816;5.862;2022-12-29T15:17:49;99460.88;;;12.65
64790;BMP280;51223;51.816;5.862;2022-12-29T15:20:28;99419.75;;;12.44
64790;BMP280;51223;51.816;5.862;2022-12-29T15:23:02;99452.31;;;12.60
64790;BMP280;51223;51.816;5.862;2022-12-29T15:25:28;99477.78;;;12.23
64790;BMP280;51223;51.816;5.862;2022-12-29T15:28:04;99388.47;;;12.51
64790;BMP280;51223;51.816;5.862;2022-12-29T15:30:32;99427.66;;;12.55
64790;BMP280;51223;51.816;5.862;2022-12-29T15:32:58;99423.84;;;12.34
64790;BMP280;51223;51.816;5.862;2022-12-29T15:37:52;99387.19;;;12.28
64790;BMP280;51223;51.816;5.862;2022-12-29T15:40:32;99408.81;;;12.13
64790;BMP280;51223;51.816;5.862;2022-12-29T15:43:07;99402.47;;;12.27
64790;BMP280;51223;51.816;5.862;2022-12-29T15:45:35;99436.22;;;12.27
64790;BMP280;51223;51.816;5.862;2022-12-29T15:48:01;99427.56;;;12.07
64790;BMP280;51223;51.816;5.862;2022-12-29T15:50:30;99419.91;;;12.40
64790;BMP280;51223;51.816;5.862;2022-12-29T15:52:57;99451.16;;;12.42
64790;BMP280;51223;51.816;5.862;2022-12-29T15:55:32;99518.72;;;12.57
64790;BMP280;51223;51.816;5.862;2022-12-29T15:58:00;99518.31;;;12.40
64790;BMP280;51223;51.816;5.862;2022-12-29T16:00:32;99536.59;;;12.69
64790;BMP280;51223;51.816;5.862;2022-12-29T16:03:02;99570.09;;;11.79
64790;BMP280;51223;51.816;5.862;2022-12-29T16:05:37;99495.88;;;12.22
64790;BMP280;51223;51.816;5.862;2022-12-29T16:08:21;99500.72;;;12.22